Time;durP1;ratioP1;P1;durP2;ratioP2;P2;SDS_P1;SDS_P2;PMS_P1;PMS_P2;Temp;Humidity;BMP_temperature;BMP_pressure;BME280_temperature;BME280_humidity;BME280_pressure;Samples;Min_cycle;Max_cycle;Signal;HPM_P1;HPM_P2
2023/04/02 00:01:06;;;;;;;1.33;0.50;;;9.20;79.90;;;;;;5028374;28;20472;-65
2023/04/02 00:04:07;;;;;;;2.37;0.70;;;9.20;79.80;;;;;;5028045;28;20445;-66
2023/04/02 00:06:43;;;;;;;1.50;0.47;;;9.10;80.60;;;;;;5028354;28;20448;-67
2023/04/02 00:09:32;;;;;;;0.80;0.30;;;9.10;80.60;;;;;;5028473;28;20464;-67
2023/04/02 00:12:01;;;;;;;0.80;0.50;;;9.20;80.30;;;;;;5028323;28;20456;-66
2023/04/02 00:14:30;;;;;;;1.47;0.50;;;9.10;80.80;;;;;;5028248;28;20457;-66
2023/04/02 00:17:00;;;;;;;1.03;0.60;;;9.20;80.50;;;;;;5028590;28;20444;-67
2023/04/02 00:19:34;;;;;;;0.87;0.60;;;9.10;80.50;;;;;;5028213;28;20484;-66
2023/04/02 00:22:05;;;;;;;1.00;0.60;;;9.10;80.80;;;;;;5028716;28;20452;-67
2023/04/02 00:24:33;;;;;;;1.17;0.47;;;9.10;80.90;;;;;;5027906;28;21145;-66
2023/04/02 00:27:00;;;;;;;0.50;0.30;;;9.10;80.80;;;;;;5028213;28;20483;-66
2023/04/02 00:29:27;;;;;;;2.50;0.70;;;9.10;80.50;;;;;;5027941;28;20860;-68
2023/04/02 00:31:54;;;;;;;0.90;0.57;;;9.10;81.40;;;;;;5023602;28;20469;-66
2023/04/02 00:34:25;;;;;;;0.60;0.43;;;9.00;81.00;;;;;;5028272;28;20446;-69
2023/04/02 00:36:53;;;;;;;0.90;0.50;;;9.10;81.20;;;;;;5022573;28;20466;-67
2023/04/02 00:39:24;;;;;;;1.27;0.40;;;9.10;81.30;;;;;;5027257;28;20857;-66
2023/04/02 00:42:03;;;;;;;1.03;0.60;;;9.00;81.40;;;;;;5026071;28;20871;-67
2023/04/02 00:44:32;;;;;;;1.50;0.50;;;9.00;81.80;;;;;;5028061;28;20463;-67
2023/04/02 00:47:08;;;;;;;1.40;0.50;;;9.10;81.80;;;;;;5024745;28;20464;-66
2023/04/02 00:49:37;;;;;;;1.97;1.73;;;9.10;81.60;;;;;;5026667;28;20489;-67
2023/04/02 00:52:07;;;;;;;1.17;1.07;;;9.10;80.60;;;;;;5027279;28;20450;-67
2023/04/02 00:54:42;;;;;;;1.47;0.50;;;9.10;80.90;;;;;;5026274;28;20973;-67
2023/04/02 00:57:16;;;;;;;1.20;0.67;;;9.10;80.90;;;;;;5025870;28;20458;-67
2023/04/02 00:59:54;;;;;;;1.17;0.70;;;9.10;81.40;;;;;;5025718;28;20489;-67
2023/04/02 01:02:28;;;;;;;1.40;0.57;;;9.10;80.60;;;;;;5026439;28;20450;-66
2023/04/02 01:04:56;;;;;;;1.57;0.50;;;9.10;81.20;;;;;;5026410;28;20943;-68
2023/04/02 01:07:38;;;;;;;0.90;0.33;;;9.00;81.40;;;;;;5026671;28;21273;-66
2023/04/02 01:10:28;;;;;;;1.27;0.40;;;9.00;81.50;;;;;;5026345;28;20464;-68
2023/04/02 01:13:06;;;;;;;1.37;0.50;;;9.00;81.80;;;;;;5026522;28;20439;-66
2023/04/02 01:15:41;;;;;;;1.00;0.63;;;9.00;82.30;;;;;;5027093;28;20441;-68
2023/04/02 01:18:30;;;;;;;0.70;0.70;;;9.10;81.40;;;;;;5017727;28;20449;-65
2023/04/02 01:21:32;;;;;;;0.90;0.40;;;9.00;81.60;;;;;;5018271;28;20461;-67
2023/04/02 01:24:04;;;;;;;0.70;0.50;;;9.10;80.90;;;;;;5018678;28;20467;-69
2023/04/02 01:26:46;;;;;;;0.90;0.60;;;9.10;80.90;;;;;;5032527;28;20442;-66
2023/04/02 01:29:16;;;;;;;0.97;0.60;;;9.10;80.70;;;;;;5032294;28;20475;-67
2023/04/02 01:31:45;;;;;;;0.60;0.40;;;9.00;80.80;;;;;;5032476;28;20453;-65
2023/04/02 01:34:14;;;;;;;0.70;0.40;;;9.00;81.00;;;;;;5031978;28;20943;-68
2023/04/02 01:36:48;;;;;;;1.07;0.50;;;9.10;80.90;;;;;;5031967;28;20937;-67
2023/04/02 01:39:26;;;;;;;0.80;0.50;;;9.00;81.10;;;;;;5032190;28;20486;-67
2023/04/02 01:42:01;;;;;;;0.80;0.50;;;9.00;81.20;;;;;;5033140;28;20463;-66
2023/04/02 01:44:34;;;;;;;0.50;0.40;;;9.10;81.00;;;;;;5032451;28;20445;-70
2023/04/02 01:47:05;;;;;;;1.10;0.53;;;9.10;80.80;;;;;;5032507;28;20454;-66
2023/04/02 01:49:32;;;;;;;1.20;0.47;;;9.00;81.20;;;;;;5032556;28;20552;-66
2023/04/02 01:52:00;;;;;;;0.83;0.70;;;9.00;81.40;;;;;;5032000;28;20457;-69
2023/04/02 01:54:27;;;;;;;0.50;0.40;;;9.00;81.50;;;;;;5031783;28;20538;-70
2023/04/02 01:56:56;;;;;;;0.60;0.50;;;9.10;81.40;;;;;;5031746;28;20449;-67
2023/04/02 01:59:23;;;;;;;1.10;0.33;;;9.10;81.40;;;;;;5031785;28;20585;-67
2023/04/02 02:01:58;;;;;;;1.43;0.50;;;9.10;83.10;;;;;;5031485;28;20794;-66
2023/04/02 02:04:25;;;;;;;0.93;0.50;;;9.10;81.40;;;;;;5031389;28;20486;-67
2023/04/02 02:06:53;;;;;;;0.90;0.40;;;9.10;81.20;;;;;;5031759;28;21220;-66
2023/04/02 02:09:22;;;;;;;1.20;0.47;;;9.20;80.60;;;;;;5031299;28;20991;-67
2023/04/02 02:11:50;;;;;;;2.33;0.50;;;9.10;81.10;;;;;;5031842;28;20481;-69
2023/04/02 02:14:19;;;;;;;0.60;0.50;;;9.10;81.00;;;;;;5031433;28;20454;-68
2023/04/02 02:16:47;;;;;;;2.70;0.53;;;9.10;81.00;;;;;;5031617;28;20537;-67
2023/04/02 02:19:24;;;;;;;0.80;0.57;;;9.20;80.70;;;;;;5031285;28;20486;-67
2023/04/02 02:21:53;;;;;;;1.40;0.50;;;9.20;79.90;;;;;;5031664;28;20865;-66
2023/04/02 02:24:23;;;;;;;1.30;0.70;;;9.20;80.70;;;;;;5030899;28;20447;-67
2023/04/02 02:26:58;;;;;;;1.27;0.60;;;9.20;80.90;;;;;;5031391;28;20449;-69
2023/04/02 02:29:28;;;;;;;1.87;0.60;;;9.20;81.50;;;;;;5030547;28;20845;-66
2023/04/02 02:31:57;;;;;;;0.97;0.40;;;9.20;81.00;;;;;;5031957;28;20439;-66
2023/04/02 02:34:33;;;;;;;0.60;0.47;;;9.30;80.30;;;;;;5030923;28;20454;-67
2023/04/02 02:37:04;;;;;;;0.70;0.40;;;9.30;80.20;;;;;;5031411;28;20456;-69
2023/04/02 02:39:37;;;;;;;1.00;0.43;;;9.20;79.70;;;;;;5030730;28;20486;-66
2023/04/02 02:42:11;;;;;;;0.80;0.40;;;9.30;79.30;;;;;;5031199;28;21009;-69
2023/04/02 02:44:42;;;;;;;1.77;0.70;;;9.30;79.30;;;;;;5031369;28;20440;-68
2023/04/02 02:47:13;;;;;;;1.10;0.50;;;9.30;79.10;;;;;;5031845;28;20445;-66
2023/04/02 02:49:44;;;;;;;0.60;0.40;;;9.30;79.40;;;;;;5030943;28;20459;-69
2023/04/02 02:52:16;;;;;;;1.40;0.60;;;9.30;79.60;;;;;;5030991;28;20497;-67
2023/04/02 02:54:45;;;;;;;0.50;0.40;;;9.30;79.40;;;;;;5030745;28;20449;-66
2023/04/02 02:57:17;;;;;;;0.50;0.40;;;9.30;79.30;;;;;;5030841;28;20837;-69
2023/04/02 02:59:45;;;;;;;0.97;0.50;;;9.30;79.00;;;;;;5030664;28;20856;-68
2023/04/02 03:02:14;;;;;;;1.30;0.40;;;9.30;79.60;;;;;;5030651;28;20490;-67
2023/04/02 03:04:47;;;;;;;1.17;0.50;;;9.30;79.00;;;;;;5030587;28;20452;-67
2023/04/02 03:07:15;;;;;;;1.00;0.50;;;9.30;79.10;;;;;;5030803;28;20454;-67
2023/04/02 03:09:49;;;;;;;0.70;0.40;;;9.30;79.60;;;;;;5030694;28;20841;-69
2023/04/02 03:12:31;;;;;;;0.60;0.57;;;9.20;81.00;;;;;;5030556;28;20482;-67
2023/04/02 03:15:03;;;;;;;0.50;0.30;;;9.20;79.50;;;;;;5031003;28;20462;-67
2023/04/02 03:17:34;;;;;;;0.60;0.40;;;9.30;79.80;;;;;;5030295;28;20436;-67
2023/04/02 03:20:11;;;;;;;0.90;0.40;;;9.20;79.40;;;;;;5030574;28;20573;-67
2023/04/02 03:22:42;;;;;;;0.60;0.30;;;9.30;80.20;;;;;;5030274;28;20444;-69
2023/04/02 03:25:22;;;;;;;0.60;0.40;;;9.30;80.10;;;;;;5030416;28;21045;-69
2023/04/02 03:27:53;;;;;;;0.60;0.40;;;9.30;80.20;;;;;;5030211;28;20452;-68
2023/04/02 03:30:30;;;;;;;0.60;0.30;;;9.30;80.20;;;;;;5029952;28;21236;-66
2023/04/02 03:33:01;;;;;;;1.13;0.60;;;9.30;80.10;;;;;;5030199;28;20442;-68
2023/04/02 03:35:34;;;;;;;0.73;0.30;;;9.20;80.00;;;;;;5030273;28;20508;-67
2023/04/02 03:38:06;;;;;;;0.80;0.40;;;9.20;80.80;;;;;;5030273;28;20451;-68
2023/04/02 03:40:38;;;;;;;1.20;0.40;;;9.30;79.90;;;;;;5028429;28;20862;-67
2023/04/02 03:43:13;;;;;;;1.37;0.60;;;9.30;80.10;;;;;;5030230;28;20445;-65
2023/04/02 03:45:45;;;;;;;1.10;0.30;;;9.30;79.80;;;;;;5030132;28;20450;-66
2023/04/02 03:48:15;;;;;;;0.77;0.30;;;9.30;80.40;;;;;;5030306;28;20454;-67
2023/04/02 03:50:50;;;;;;;0.70;0.40;;;9.20;81.20;;;;;;5030136;28;20448;-67
2023/04/02 03:53:17;;;;;;;0.70;0.40;;;9.10;81.20;;;;;;5029963;28;20460;-66
2023/04/02 03:55:44;;;;;;;1.07;0.47;;;9.10;81.60;;;;;;5030136;28;20561;-69
2023/04/02 03:58:17;;;;;;;0.60;0.40;;;9.10;81.70;;;;;;5029739;28;20456;-67
2023/04/02 04:00:51;;;;;;;0.70;0.30;;;9.20;81.10;;;;;;5029826;28;20488;-69
2023/04/02 04:03:23;;;;;;;1.80;0.60;;;9.10;81.70;;;;;;5029578;28;20472;-68
2023/04/02 04:05:56;;;;;;;0.50;0.40;;;9.10;81.70;;;;;;5029840;28;20443;-69
2023/04/02 04:08:27;;;;;;;0.60;0.50;;;9.00;81.70;;;;;;5029540;28;20990;-67
2023/04/02 04:10:57;;;;;;;1.30;0.47;;;9.10;82.00;;;;;;5029893;28;20462;-66
2023/04/02 04:13:31;;;;;;;2.10;0.40;;;9.10;81.80;;;;;;5028976;28;20591;-67
2023/04/02 04:16:02;;;;;;;0.60;0.40;;;9.10;81.60;;;;;;5030008;28;20452;-67
2023/04/02 04:18:36;;;;;;;0.87;0.50;;;9.10;81.90;;;;;;5029601;28;20481;-67
2023/04/02 04:21:12;;;;;;;0.63;0.40;;;9.20;81.80;;;;;;5029675;28;20535;-68
2023/04/02 04:23:39;;;;;;;1.27;0.60;;;9.20;81.80;;;;;;5029460;28;20445;-68
2023/04/02 04:26:19;;;;;;;1.57;0.40;;;9.20;81.80;;;;;;5029321;28;20449;-68
2023/04/02 04:28:57;;;;;;;0.50;0.30;;;9.20;81.70;;;;;;5029821;28;20469;-68
2023/04/02 04:31:33;;;;;;;0.57;0.37;;;9.20;81.50;;;;;;5029722;28;20449;-67
2023/04/02 04:34:05;;;;;;;2.10;0.53;;;9.30;81.30;;;;;;5029121;28;20445;-68
2023/04/02 04:36:46;;;;;;;0.90;0.53;;;9.20;81.50;;;;;;5029138;28;20449;-67
2023/04/02 04:39:17;;;;;;;0.80;0.50;;;9.20;82.00;;;;;;5029626;28;20469;-67
2023/04/02 04:41:46;;;;;;;0.93;0.50;;;9.10;82.00;;;;;;5029412;28;20469;-67
2023/04/02 04:44:18;;;;;;;1.20;0.33;;;9.10;81.90;;;;;;5029420;28;20944;-67
2023/04/02 04:46:49;;;;;;;0.83;0.40;;;9.10;81.80;;;;;;5029839;28;20441;-69
2023/04/02 04:49:20;;;;;;;0.73;0.50;;;9.20;82.00;;;;;;5029582;28;20469;-66
2023/04/02 04:51:52;;;;;;;0.70;0.40;;;9.10;82.60;;;;;;5032091;28;20452;-68
2023/04/02 04:54:19;;;;;;;0.97;0.70;;;9.00;82.90;;;;;;5033208;28;20463;-66
2023/04/02 04:56:49;;;;;;;0.53;0.37;;;9.00;82.80;;;;;;5033426;28;20501;-68
2023/04/02 04:59:21;;;;;;;0.70;0.50;;;9.00;83.00;;;;;;5032919;28;20470;-67
2023/04/02 05:01:53;;;;;;;1.33;0.60;;;9.10;83.40;;;;;;5033497;28;20466;-66
2023/04/02 05:04:24;;;;;;;0.70;0.40;;;9.10;82.70;;;;;;5032809;28;20451;-66
2023/04/02 05:06:57;;;;;;;1.80;0.57;;;9.10;83.00;;;;;;5033232;28;20939;-67
2023/04/02 05:09:29;;;;;;;0.63;0.43;;;9.10;83.60;;;;;;5032790;28;20473;-68
2023/04/02 05:12:05;;;;;;;2.00;0.50;;;9.20;83.00;;;;;;5032919;28;20449;-69
2023/04/02 05:14:36;;;;;;;0.50;0.40;;;9.10;82.90;;;;;;5032596;28;20454;-67
2023/04/02 05:17:07;;;;;;;1.03;0.40;;;9.10;83.70;;;;;;5033223;28;20934;-67
2023/04/02 05:19:39;;;;;;;0.70;0.40;;;9.10;83.20;;;;;;5032966;28;20490;-70
2023/04/02 05:22:19;;;;;;;0.97;0.50;;;9.00;83.20;;;;;;5032916;28;20859;-67
2023/04/02 05:24:55;;;;;;;0.53;0.43;;;9.00;85.00;;;;;;5032645;28;20452;-67
2023/04/02 05:27:31;;;;;;;0.80;0.50;;;9.00;85.30;;;;;;5032890;28;20443;-69
2023/04/02 05:30:04;;;;;;;2.27;0.60;;;9.00;86.50;;;;;;5032770;28;20471;-70
2023/04/02 05:32:36;;;;;;;0.60;0.50;;;9.00;86.50;;;;;;5032493;28;20448;-66
2023/04/02 05:35:06;;;;;;;1.03;0.50;;;9.00;85.50;;;;;;5033063;28;20439;-67
2023/04/02 05:37:34;;;;;;;0.73;0.50;;;9.10;86.50;;;;;;5032899;28;20509;-68
2023/04/02 05:40:10;;;;;;;1.17;0.50;;;9.10;86.40;;;;;;5031679;28;20502;-68
2023/04/02 05:42:39;;;;;;;3.77;0.83;;;9.10;86.00;;;;;;5032339;28;20533;-66
2023/04/02 05:45:17;;;;;;;0.80;0.50;;;9.10;87.10;;;;;;5032388;28;20547;-66
2023/04/02 05:47:46;;;;;;;1.10;0.43;;;9.10;87.00;;;;;;5032186;28;20452;-66
2023/04/02 05:50:22;;;;;;;1.07;0.70;;;9.10;86.70;;;;;;5032411;28;20566;-67
2023/04/02 05:52:55;;;;;;;1.63;0.77;;;9.00;87.00;;;;;;5031875;28;20443;-68
2023/04/02 05:55:49;;;;;;;1.17;0.60;;;9.10;87.30;;;;;;5032243;28;20448;-66
2023/04/02 05:58:25;;;;;;;1.60;0.60;;;9.10;87.30;;;;;;5032187;28;20507;-67
2023/04/02 06:01:01;;;;;;;0.73;0.73;;;9.00;87.20;;;;;;5031904;28;20495;-65
2023/04/02 06:03:37;;;;;;;1.23;0.60;;;9.10;90.00;;;;;;5030554;28;20451;-67
2023/04/02 06:06:11;;;;;;;1.27;0.50;;;9.10;90.20;;;;;;5031898;28;20452;-70
2023/04/02 06:08:44;;;;;;;1.70;0.63;;;9.20;90.30;;;;;;5032205;28;20468;-70
2023/04/02 06:11:13;;;;;;;2.97;0.67;;;9.30;90.70;;;;;;5031819;28;20453;-67
2023/04/02 06:13:40;;;;;;;1.13;0.40;;;9.30;89.40;;;;;;5031757;28;20453;-68
2023/04/02 06:16:09;;;;;;;0.70;0.50;;;9.40;90.50;;;;;;5031863;28;20471;-66
2023/04/02 06:18:37;;;;;;;0.50;0.50;;;9.50;89.40;;;;;;5031596;28;20468;-66
2023/04/02 06:21:05;;;;;;;0.63;0.50;;;9.50;86.70;;;;;;5031375;28;20487;-66
2023/04/02 06:23:36;;;;;;;2.13;0.70;;;9.70;85.40;;;;;;5031482;28;20456;-66
2023/04/02 06:26:07;;;;;;;0.63;0.50;;;9.70;84.90;;;;;;5031568;28;20492;-66
2023/04/02 06:28:40;;;;;;;0.80;0.40;;;9.70;85.40;;;;;;5031507;28;20472;-67
2023/04/02 06:31:14;;;;;;;0.70;0.70;;;9.80;84.20;;;;;;5031467;28;20444;-66
2023/04/02 06:33:41;;;;;;;1.20;0.50;;;9.90;83.70;;;;;;5031087;28;20828;-67
2023/04/02 06:36:10;;;;;;;1.17;0.60;;;9.90;84.00;;;;;;5031470;28;20448;-66
2023/04/02 06:38:39;;;;;;;1.43;0.60;;;9.80;83.30;;;;;;5031112;28;20479;-66
2023/04/02 06:41:15;;;;;;;1.43;0.80;;;9.80;83.50;;;;;;5031132;28;20479;-66
2023/04/02 06:43:45;;;;;;;1.40;1.00;;;9.80;83.90;;;;;;5030791;28;20482;-66
2023/04/02 06:46:20;;;;;;;1.30;0.80;;;9.70;84.20;;;;;;5030835;28;20463;-68
2023/04/02 06:48:50;;;;;;;1.07;0.70;;;9.70;84.40;;;;;;5030974;28;20476;-65
2023/04/02 06:51:20;;;;;;;2.07;0.60;;;9.80;84.60;;;;;;5031539;28;20440;-65
2023/04/02 06:53:49;;;;;;;1.50;0.77;;;9.80;84.00;;;;;;5030540;28;20455;-65
2023/04/02 06:56:30;;;;;;;2.13;0.87;;;9.70;83.90;;;;;;5031269;28;20509;-67
2023/04/02 06:58:57;;;;;;;1.53;1.00;;;9.60;83.90;;;;;;5030595;28;20500;-66
2023/04/02 07:01:27;;;;;;;1.57;0.60;;;9.60;84.40;;;;;;5030911;28;20496;-67
2023/04/02 07:03:55;;;;;;;3.20;0.67;;;9.70;85.20;;;;;;5030950;28;20447;-66
2023/04/02 07:06:22;;;;;;;1.83;0.80;;;9.70;86.30;;;;;;5030707;28;20449;-66
2023/04/02 07:08:49;;;;;;;0.70;0.70;;;9.90;86.30;;;;;;5030747;28;20503;-67
2023/04/02 07:11:17;;;;;;;1.00;0.80;;;10.10;83.30;;;;;;5030684;28;20942;-64
2023/04/02 07:13:45;;;;;;;2.03;1.50;;;10.20;82.40;;;;;;5029772;28;20454;-66
2023/04/02 07:16:15;;;;;;;2.60;1.00;;;10.20;83.10;;;;;;5031459;28;20461;-66
2023/04/02 07:18:42;;;;;;;1.00;0.70;;;10.30;83.40;;;;;;5030556;28;20464;-66
2023/04/02 07:21:09;;;;;;;1.73;0.83;;;10.50;83.40;;;;;;5030190;28;20503;-68
2023/04/02 07:23:36;;;;;;;1.30;0.80;;;10.60;82.90;;;;;;5010498;28;20971;-66
2023/04/02 07:26:04;;;;;;;1.10;0.83;;;10.80;81.90;;;;;;5011018;28;20543;-69
2023/04/02 07:28:31;;;;;;;1.10;0.70;;;10.80;79.50;;;;;;5010370;28;20496;-66
2023/04/02 07:30:59;;;;;;;1.27;0.60;;;10.90;79.60;;;;;;5010811;28;20440;-66
2023/04/02 07:33:28;;;;;;;2.00;0.80;;;11.00;79.60;;;;;;5010248;28;20486;-67
2023/04/02 07:35:57;;;;;;;1.00;0.80;;;10.90;78.90;;;;;;5011372;28;20447;-65
2023/04/02 07:38:24;;;;;;;1.47;0.77;;;10.90;80.20;;;;;;5011573;28;20491;-66
2023/04/02 07:40:50;;;;;;;0.57;0.40;;;11.10;81.00;;;;;;5011875;28;20505;-66
2023/04/02 07:43:17;;;;;;;1.23;0.60;;;11.20;77.00;;;;;;5011337;28;20452;-65
2023/04/02 07:45:44;;;;;;;0.70;0.50;;;11.20;76.00;;;;;;5010329;28;20463;-65
2023/04/02 07:48:14;;;;;;;1.43;0.60;;;11.20;76.30;;;;;;5010297;28;21052;-65
2023/04/02 07:50:40;;;;;;;0.70;0.70;;;11.10;77.60;;;;;;5010393;28;21003;-64
2023/04/02 07:53:08;;;;;;;1.23;0.90;;;11.20;78.40;;;;;;5010075;28;20452;-65
2023/04/02 07:55:35;;;;;;;1.97;0.80;;;11.30;77.60;;;;;;5010070;28;20871;-64
2023/04/02 07:58:03;;;;;;;1.00;0.70;;;11.50;77.70;;;;;;5010031;28;20443;-67
2023/04/02 08:00:29;;;;;;;1.90;1.07;;;11.50;76.90;;;;;;5009506;28;20476;-65
2023/04/02 08:02:56;;;;;;;2.00;0.87;;;11.60;76.70;;;;;;5010064;28;20453;-66
2023/04/02 08:05:25;;;;;;;1.10;1.00;;;11.60;76.30;;;;;;5010246;28;20460;-65
2023/04/02 08:07:54;;;;;;;1.67;0.87;;;11.60;76.00;;;;;;5009976;28;20571;-65
2023/04/02 08:10:20;;;;;;;1.17;1.03;;;11.70;76.50;;;;;;5009836;28;20478;-67
2023/04/02 08:12:48;;;;;;;2.80;0.83;;;11.70;72.90;;;;;;5009059;28;20554;-66
2023/04/02 08:15:16;;;;;;;2.10;1.00;;;11.60;75.50;;;;;;5009638;28;20451;-64
2023/04/02 08:17:43;;;;;;;1.40;0.73;;;11.50;76.10;;;;;;5010081;28;20446;-67
2023/04/02 08:20:16;;;;;;;1.93;0.87;;;11.70;74.80;;;;;;5009974;28;20850;-66
2023/04/02 08:22:45;;;;;;;3.50;0.80;;;11.70;74.90;;;;;;5009370;28;20556;-68
2023/04/02 08:25:11;;;;;;;1.47;1.20;;;11.70;75.10;;;;;;5010338;28;20449;-73
2023/04/02 08:27:39;;;;;;;1.63;0.93;;;11.90;75.50;;;;;;5013995;28;20449;-67
2023/04/02 08:30:07;;;;;;;0.93;0.80;;;12.10;73.60;;;;;;5014274;28;20471;-65
2023/04/02 08:32:34;;;;;;;1.63;0.80;;;12.10;74.10;;;;;;5013889;28;20518;-69
2023/04/02 08:35:01;;;;;;;1.37;1.13;;;12.10;72.30;;;;;;5013814;28;20456;-66
2023/04/02 08:37:28;;;;;;;1.50;1.00;;;12.10;71.90;;;;;;5013847;28;20457;-67
2023/04/02 08:39:56;;;;;;;1.27;1.17;;;12.00;71.20;;;;;;5015780;28;21005;-67
2023/04/02 08:42:29;;;;;;;1.03;0.93;;;11.80;73.30;;;;;;5013712;28;20480;-67
2023/04/02 08:45:08;;;;;;;1.10;1.00;;;11.80;74.60;;;;;;5013359;28;20972;-66
2023/04/02 08:47:39;;;;;;;1.73;0.97;;;11.90;75.80;;;;;;5013817;28;20454;-67
2023/04/02 08:50:15;;;;;;;1.63;1.23;;;12.00;74.20;;;;;;5013444;28;20472;-66
2023/04/02 08:52:42;;;;;;;1.93;1.40;;;11.80;74.60;;;;;;5016685;28;20452;-68
2023/04/02 08:55:21;;;;;;;1.30;1.00;;;11.70;75.80;;;;;;5033466;28;20549;-70
2023/04/02 08:57:54;;;;;;;1.80;1.17;;;11.50;77.60;;;;;;5033301;28;20969;-70
2023/04/02 09:00:28;;;;;;;1.23;1.07;;;11.30;78.50;;;;;;5033400;28;20470;-70
2023/04/02 09:02:58;;;;;;;1.63;1.20;;;11.20;80.20;;;;;;5032854;28;20802;-69
2023/04/02 09:05:28;;;;;;;1.33;1.23;;;11.40;79.90;;;;;;5033041;28;20446;-67
2023/04/02 09:07:58;;;;;;;0.87;0.80;;;11.70;80.20;;;;;;5031778;28;20444;-68
2023/04/02 09:10:37;;;;;;;0.97;0.93;;;11.90;77.20;;;;;;5032318;28;20478;-67
2023/04/02 09:13:09;;;;;;;1.77;1.00;;;12.20;77.00;;;;;;5032609;28;20462;-70
2023/04/02 09:15:36;;;;;;;1.10;1.00;;;12.60;76.20;;;;;;5032904;28;21037;-68
2023/04/02 09:18:12;;;;;;;3.73;1.00;;;12.90;73.10;;;;;;5032696;28;20455;-67
2023/04/02 09:20:39;;;;;;;1.07;0.90;;;13.20;70.60;;;;;;5032939;28;20452;-68
2023/04/02 09:23:08;;;;;;;4.17;1.93;;;13.60;70.50;;;;;;5032465;28;20445;-70
2023/04/02 09:25:45;;;;;;;2.13;1.40;;;14.00;69.10;;;;;;5032746;28;20970;-67
2023/04/02 09:28:12;;;;;;;1.63;1.03;;;14.30;65.30;;;;;;5032348;28;20453;-64
2023/04/02 09:30:52;;;;;;;1.70;0.80;;;14.20;64.20;;;;;;5032651;28;20478;-69
2023/04/02 09:33:20;;;;;;;1.73;1.20;;;14.20;66.60;;;;;;5031412;28;20453;-65
2023/04/02 09:35:55;;;;;;;1.77;1.00;;;14.50;64.40;;;;;;5032332;28;20502;-70
2023/04/02 09:38:26;;;;;;;1.50;0.97;;;14.70;63.40;;;;;;5019054;28;21007;-67
2023/04/02 09:41:00;;;;;;;2.30;1.00;;;14.60;62.20;;;;;;5032252;28;21150;-66
2023/04/02 09:43:29;;;;;;;1.67;1.10;;;14.80;61.00;;;;;;5032485;28;20449;-66
2023/04/02 09:45:59;;;;;;;1.70;1.10;;;14.90;60.10;;;;;;5032627;28;20453;-66
2023/04/02 09:48:30;;;;;;;1.53;0.87;;;14.90;62.20;;;;;;5032487;28;20554;-67
2023/04/02 09:51:06;;;;;;;1.70;0.93;;;15.00;62.40;;;;;;5032099;28;20443;-65
2023/04/02 09:53:36;;;;;;;0.90;0.90;;;14.90;64.50;;;;;;5028542;28;20458;-67
2023/04/02 09:56:13;;;;;;;1.03;0.93;;;15.00;60.30;;;;;;5031191;28;20439;-63
2023/04/02 09:58:40;;;;;;;1.73;1.00;;;14.90;62.50;;;;;;5028475;28;20467;-65
2023/04/02 10:01:26;;;;;;;1.23;1.13;;;15.20;62.80;;;;;;5031966;28;20487;-67
2023/04/02 10:03:53;;;;;;;0.60;0.60;;;15.40;62.40;;;;;;5030417;28;20450;-67
2023/04/02 10:06:20;;;;;;;1.37;1.00;;;15.80;60.60;;;;;;5031564;28;20456;-68
2023/04/02 10:08:47;;;;;;;1.17;0.90;;;15.60;58.40;;;;;;5031646;28;20893;-67
2023/04/02 10:11:20;;;;;;;0.90;0.70;;;15.40;59.20;;;;;;5031777;28;20441;-66
2023/04/02 10:13:53;;;;;;;0.90;0.67;;;15.40;60.90;;;;;;5031746;28;20450;-66
2023/04/02 10:16:25;;;;;;;0.80;0.77;;;15.60;58.20;;;;;;5031926;28;20443;-66
2023/04/02 10:18:56;;;;;;;0.90;0.80;;;15.80;60.70;;;;;;5031579;28;20472;-65
2023/04/02 10:21:26;;;;;;;1.30;1.00;;;16.00;58.90;;;;;;5031609;28;20476;-65
2023/04/02 10:23:53;;;;;;;0.80;0.70;;;16.10;57.80;;;;;;5031010;28;20456;-66
2023/04/02 10:26:35;;;;;;;1.10;0.70;;;16.30;57.80;;;;;;5031591;28;20522;-67
2023/04/02 10:29:31;;;;;;;0.57;0.57;;;16.10;57.10;;;;;;5030927;28;20475;-66
2023/04/02 10:32:02;;;;;;;0.97;0.70;;;15.60;57.80;;;;;;5025435;28;20544;-66
2023/04/02 10:34:39;;;;;;;1.33;0.90;;;15.40;59.30;;;;;;5030971;28;21090;-67
2023/04/02 10:37:25;;;;;;;0.60;0.40;;;15.20;59.20;;;;;;5030397;28;20463;-67
2023/04/02 10:39:57;;;;;;;0.93;0.70;;;15.20;60.50;;;;;;5027239;28;20488;-67
2023/04/02 10:42:36;;;;;;;0.80;0.80;;;15.50;62.20;;;;;;5024981;28;20483;-69
2023/04/02 10:45:13;;;;;;;1.73;0.77;;;15.30;58.50;;;;;;5031262;28;20444;-67
2023/04/02 10:47:44;;;;;;;1.30;0.60;;;14.80;60.00;;;;;;5022572;28;20444;-65
2023/04/02 10:50:28;;;;;;;0.60;0.60;;;14.70;62.30;;;;;;5028211;28;20467;-68
2023/04/02 10:52:59;;;;;;;0.93;0.60;;;14.50;60.80;;;;;;5026399;28;20484;-63
2023/04/02 10:55:31;;;;;;;0.80;0.70;;;14.40;61.40;;;;;;5030456;28;20454;-65
2023/04/02 10:58:05;;;;;;;1.57;0.73;;;14.30;61.60;;;;;;5030374;28;20935;-65
2023/04/02 11:00:36;;;;;;;2.70;1.07;;;14.10;62.50;;;;;;5024393;28;20438;-65
2023/04/02 11:03:06;;;;;;;1.00;0.50;;;13.90;63.40;;;;;;5020046;28;20558;-67
2023/04/02 11:05:42;;;;;;;1.10;0.70;;;13.70;64.60;;;;;;5022061;28;20965;-66
2023/04/02 11:08:18;;;;;;;1.70;1.60;;;13.40;65.40;;;;;;5022416;28;20448;-67
2023/04/02 11:10:49;;;;;;;1.30;1.00;;;12.90;67.20;;;;;;5023805;28;20478;-67
2023/04/02 11:13:22;;;;;;;1.07;0.90;;;12.70;69.30;;;;;;5024432;28;20450;-66
2023/04/02 11:15:49;;;;;;;1.17;0.50;;;12.50;69.80;;;;;;5026812;28;20506;-68
2023/04/02 11:18:34;;;;;;;0.80;0.70;;;12.60;69.30;;;;;;5030371;28;20822;-65
2023/04/02 11:21:04;;;;;;;1.37;0.60;;;12.50;68.40;;;;;;5014391;28;20554;-68
2023/04/02 11:23:55;;;;;;;0.80;0.70;;;12.50;68.40;;;;;;5030279;28;20444;-67
2023/04/02 11:26:42;;;;;;;0.87;0.67;;;12.80;67.50;;;;;;5029591;28;20942;-65
2023/04/02 11:29:29;;;;;;;1.30;0.60;;;12.90;70.40;;;;;;5015313;28;20507;-66
2023/04/02 11:32:39;;;;;;;1.90;0.60;;;13.20;66.00;;;;;;5019509;28;20849;-68
2023/04/02 11:35:35;;;;;;;0.50;0.47;;;13.50;65.80;;;;;;4968388;28;20540;-69
2023/04/02 11:38:23;;;;;;;0.73;0.60;;;13.90;66.30;;;;;;4948853;28;20582;-67
2023/04/02 11:40:51;;;;;;;0.70;0.50;;;14.30;63.70;;;;;;5010506;28;20441;-68
2023/04/02 11:43:57;;;;;;;0.67;0.43;;;14.50;63.00;;;;;;5024908;28;20870;-68
2023/04/02 11:46:45;;;;;;;0.80;0.53;;;14.80;62.70;;;;;;5024706;28;20450;-68
2023/04/02 11:49:35;;;;;;;0.87;0.70;;;15.10;59.40;;;;;;5029219;28;20524;-66
2023/04/02 11:52:03;;;;;;;1.67;0.57;;;15.20;57.60;;;;;;5014566;28;20442;-67
2023/04/02 11:54:34;;;;;;;0.70;0.70;;;15.10;58.80;;;;;;5029134;28;20471;-66
2023/04/02 11:57:15;;;;;;;0.70;0.70;;;15.30;58.00;;;;;;5029494;28;21141;-67
2023/04/02 11:59:51;;;;;;;0.70;0.60;;;15.20;56.30;;;;;;5015377;28;20474;-66
2023/04/02 12:02:27;;;;;;;1.53;0.80;;;15.00;57.20;;;;;;5027673;28;20472;-66
2023/04/02 12:05:15;;;;;;;0.90;0.50;;;14.90;56.50;;;;;;5027879;28;20451;-66
2023/04/02 12:08:06;;;;;;;0.50;0.30;;;14.90;56.30;;;;;;5025564;28;20445;-67
2023/04/02 12:10:49;;;;;;;1.77;0.40;;;14.80;57.10;;;;;;5026481;28;20447;-66
2023/04/02 12:13:19;;;;;;;0.70;0.60;;;14.90;57.70;;;;;;5026829;28;20443;-67
2023/04/02 12:15:47;;;;;;;1.37;0.60;;;15.10;57.80;;;;;;5028619;28;20809;-67
2023/04/02 12:18:17;;;;;;;2.50;2.00;;;15.30;58.50;;;;;;5028177;28;20445;-68
2023/04/02 12:20:50;;;;;;;0.87;0.50;;;15.20;57.50;;;;;;5027900;28;20942;-66
2023/04/02 12:23:20;;;;;;;1.03;0.83;;;15.00;58.40;;;;;;5027709;28;20556;-67
2023/04/02 12:25:55;;;;;;;0.90;0.60;;;14.30;61.60;;;;;;5034429;28;20464;-67
2023/04/02 12:28:22;;;;;;;1.20;0.70;;;13.60;65.20;;;;;;5028490;28;20458;-66
2023/04/02 12:30:50;;;;;;;1.07;0.93;;;13.00;68.50;;;;;;5028351;28;20450;-69
2023/04/02 12:33:29;;;;;;;3.63;0.90;;;12.80;68.70;;;;;;5027587;28;20812;-69
2023/04/02 12:35:59;;;;;;;1.20;1.10;;;12.60;70.00;;;;;;5014294;28;20865;-67
2023/04/02 12:38:28;;;;;;;0.80;0.80;;;12.30;72.30;;;;;;5028117;28;20518;-68
2023/04/02 12:40:57;;;;;;;1.20;1.07;;;12.30;73.40;;;;;;5027729;28;20457;-68
2023/04/02 12:43:25;;;;;;;1.77;0.90;;;12.40;73.60;;;;;;5027669;28;20490;-68
2023/04/02 12:45:54;;;;;;;1.43;1.00;;;12.50;72.20;;;;;;5013672;28;20453;-67
2023/04/02 12:48:21;;;;;;;1.10;0.93;;;12.40;72.40;;;;;;5028113;28;20476;-68
2023/04/02 12:50:50;;;;;;;0.93;0.93;;;12.40;72.80;;;;;;5027675;28;20448;-69
2023/04/02 12:53:23;;;;;;;1.23;0.90;;;12.40;72.90;;;;;;5027895;28;20440;-66
2023/04/02 12:55:51;;;;;;;1.47;1.30;;;12.30;73.60;;;;;;5029615;28;20444;-67
2023/04/02 12:58:30;;;;;;;1.97;1.03;;;12.20;75.00;;;;;;5031756;28;20818;-68
2023/04/02 13:01:13;;;;;;;1.30;1.20;;;12.30;74.30;;;;;;5031039;28;20449;-68
2023/04/02 13:03:40;;;;;;;1.40;1.30;;;12.20;73.60;;;;;;5030723;28;20484;-68
2023/04/02 13:06:25;;;;;;;1.57;1.27;;;12.10;73.30;;;;;;5028261;28;20452;-67
2023/04/02 13:08:53;;;;;;;1.57;1.00;;;12.00;73.70;;;;;;5026858;28;20473;-68
2023/04/02 13:11:21;;;;;;;1.43;1.10;;;11.90;74.60;;;;;;5028068;28;20461;-67
2023/04/02 13:13:49;;;;;;;2.57;1.60;;;11.80;75.60;;;;;;5031626;28;20445;-68
2023/04/02 13:16:32;;;;;;;1.73;1.63;;;11.70;79.30;;;;;;5031540;28;20452;-64
2023/04/02 13:19:24;;;;;;;1.60;1.50;;;11.60;80.80;;;;;;5031787;28;20471;-68
2023/04/02 13:21:53;;;;;;;1.50;1.40;;;11.40;81.20;;;;;;5031343;28;20523;-67